Hovedside
METAR-TAF:

METAR-TAF

Lufthavner :

Göteborg-Landvetter lufthavn

Göteborg-Landvetter, Sverige

breddegrad: 57-40N, lengdegrad: 012-18E, høyde over havet: 169 m

Gjeldene værobservasjon

Denne rapporten ble laget for 14 minutter siden, klokken 17:20 UTC
Vind 10 kt fra Sør
Temperatur 21°C
Luftfuktighet 46%
Trykk 1026 hPa
Sikt 10 km eller mer
ingen skyer under 1500 m og ingen bygeskyer

METAR: ESGG 261720Z 19010KT CAVOK 21/09 Q1026

Tid: 19:34 (17:34 UTC)

Varsel

Denne rapporten ble laget for 6 timer og 4 minutter siden, klokken 11:30 UTC
Varsel gyldig fra 26. klokken 12 UTC til 27. klokken 12 UTC
Vind 5 kt fra Øst-nordøst
Sikt 10 km eller mer
ingen skyer under 1500 m og ingen bygeskyer

TAF: ESGG 261130Z 2612/2712 06005KT CAVOK

Værobservasjoner og værvarsel for over 4000 flyplasser (METAR- og TAF-rapporter).

Tilgjengelige stasjoner er representert av de røde og gule prikkene på kartet.

Hold musepekeren over prikken for å se navnet på stasjonen.

Klikk så for å se værobservasjoner og -varsler.

For å forandre kartet kan du klikke på den grønne knappen med svart kryss for å zoome inn, på den grønne knappen med strek for å zoome ut, eller på de grønne pilene for å se tilstøtende kart.


METAR-TAF: